Aviation



KPVE - Beech River Regional Airport
Distance from Parsons: NW 4mi, 6km
Updated: Fri, 28-Apr-2017 2:55am CDT
Clear
Clear
 Wind from calm
Wind: Calm
Temperature: 54°F , 12°C
Dew Point: 52°F , 11°C
Humidity: 94%
Barometer: 29.87 inHg , 1011.5 hPa
Clouds: Clear
Visibility: 10 miles , 16 km
2017/04/28 07:55 KPVE 280755Z AUTO 00000KT 10SM CLR 12/11 A2987 RMK A01
KSNH - Savannah Hardin Co. Airport
Distance from Parsons: S 34mi, 54km
Updated: Fri, 28-Apr-2017 2:55am CDT
Clear
Clear
 Wind from calm
Wind: Calm
Temperature: 54°F , 12°C
Dew Point: 52°F , 11°C
Humidity: 94%
Barometer: 29.85 inHg , 1010.8 hPa
Clouds: Clear
Visibility: 10 miles , 16 km
2017/04/28 07:55 KSNH 280755Z AUTO 00000KT 10SM CLR 12/11 A2985 RMK A01
 
KMKL - McKellar-Sipes Regional Airport
Distance from Parsons: W 44mi, 72km
Updated: Fri, 28-Apr-2017 2:53am CDT
Clear
Clear
 Wind from calm
Wind: Calm
Temperature: 54°F , 12°C
Dew Point: 52°F , 11°C
Humidity: 94%
Barometer: 29.85 inHg , 1010.8 hPa
Clouds: Clear
Visibility: 10 miles , 16 km
2017/04/28 07:53 KMKL 280753Z AUTO 00000KT 10SM CLR 12/11 A2985 RMK AO2 SLP106 T01220111
KMSL - NW Alabama Regional Airport
Distance from Parsons: SE 78mi, 126km
Updated: Fri, 28-Apr-2017 2:53am CDT
Clear
Clear
 Wind from calm
Wind: Calm
Temperature: 57°F , 14°C
Dew Point: 54°F , 12°C
Humidity: 88%
Barometer: 29.88 inHg , 1011.9 hPa
Clouds: Clear
Visibility: 10 miles , 16 km
2017/04/28 07:53 KMSL 280753Z AUTO 00000KT 10SM CLR 14/12 A2988 RMK AO2 SLP113 T01390122
 
KBNA - Nashville, TN, USA
Distance from Parsons: NE 97mi, 157km
Updated: Fri, 28-Apr-2017 2:53am CDT
Partly cloudy
Partly cloudy
 Wind from calm
Wind: Calm
Temperature: 54°F , 12°C
Dew Point: 52°F , 11°C
Humidity: 94%
Barometer: 29.90 inHg , 1012.5 hPa
Clouds: Partly cloudy
Visibility: 10 miles , 16 km
Cloud details: Few Clouds 14000 ft
Partly cloudy 25000 ft
2017/04/28 07:53 KBNA 280753Z 00000KT 10SM FEW140 SCT250 12/11 A2990 RMK AO2 SLP120 T01170106
KMEM - Memphis, TN, USA
Distance from Parsons: W 108mi, 173km
Updated: Fri, 28-Apr-2017 2:54am CDT
Clear
Clear
 Wind from ESE
Wind: ESE 7 mph , 11 km/h
Temperature: 57°F , 14°C
Dew Point: 54°F , 12°C
Humidity: 88%
Barometer: 29.79 inHg , 1008.8 hPa
Clouds: Clear
Visibility: 10 miles , 16 km
2017/04/28 07:54 KMEM 280754Z 11006KT 10SM CLR 14/12 A2979 RMK AO2 SLP084 T01440117
 
KTYS - Knoxville, TN, USA
Distance from Parsons: E 234mi, 377km
Updated: Fri, 28-Apr-2017 2:53am CDT
Clear
Clear
 Wind from calm
Wind: Calm
Temperature: 57°F , 14°C
Dew Point: 55°F , 13°C
Humidity: 94%
Barometer: 29.91 inHg , 1012.9 hPa
Clouds: Clear
Visibility: 10 miles , 16 km
2017/04/28 07:53 KTYS 280753Z 00000KT 10SM CLR 14/13 A2991 RMK AO2 SLP119 T01440128
KSTL - St. Louis, MO, USA
Distance from Parsons: NW 247mi, 398km
Updated: Fri, 28-Apr-2017 2:51am CDT
Overcast
Overcast
 Wind from calm
Wind: Calm
Temperature: 57°F , 14°C
Dew Point: 48°F , 9°C
Humidity: 72%
Barometer: 29.84 inHg , 1010.5 hPa
Clouds: Overcast
Visibility: 10 miles , 16 km
Cloud details: Overcast 13000 ft
2017/04/28 07:51 KSTL 280751Z 00000KT 10SM OVC130 14/09 A2984 RMK AO2 SLP103 VIRGA OHD T01390094

Refresh Page for latest data.